createdAt,value
2023-02-08T00:01:20.235Z,-0.69
2023-02-08T00:03:48.245Z,-0.75
2023-02-08T00:06:17.426Z,-0.73
2023-02-08T00:08:45.836Z,-0.72
2023-02-08T00:11:13.808Z,-0.71
2023-02-08T00:13:43.003Z,-0.68
2023-02-08T00:16:13.436Z,-0.67
2023-02-08T00:18:42.405Z,-0.66
2023-02-08T00:21:16.580Z,-0.66
2023-02-08T00:23:44.795Z,-0.70
2023-02-08T00:26:13.455Z,-0.77
2023-02-08T00:28:42.304Z,-0.82
2023-02-08T00:31:10.211Z,-0.82
2023-02-08T00:33:38.406Z,-0.82
2023-02-08T00:36:08.744Z,-0.88
2023-02-08T00:38:37.169Z,-0.91
2023-02-08T00:41:05.232Z,-0.88
2023-02-08T00:43:33.200Z,-0.81
2023-02-08T00:46:01.587Z,-0.78
2023-02-08T00:48:30.178Z,-0.78
2023-02-08T00:51:06.990Z,-0.77
2023-02-08T00:53:37.275Z,-0.78
2023-02-08T00:56:08.035Z,-0.81
2023-02-08T00:58:36.385Z,-0.80
2023-02-08T01:01:05.951Z,-0.86
2023-02-08T01:03:39.604Z,-0.87
2023-02-08T01:06:10.169Z,-0.89
2023-02-08T01:08:38.509Z,-0.90
2023-02-08T01:11:12.032Z,-0.90
2023-02-08T01:13:40.725Z,-0.93
2023-02-08T01:16:22.240Z,-0.95
2023-02-08T01:18:52.624Z,-0.95
2023-02-08T01:21:23.874Z,-0.93
2023-02-08T01:23:52.562Z,-0.92
2023-02-08T01:26:21.718Z,-1.00
2023-02-08T01:28:51.302Z,-1.07
2023-02-08T01:31:22.360Z,-1.09
2023-02-08T01:33:50.707Z,-1.07
2023-02-08T01:36:18.827Z,-1.06
2023-02-08T01:38:47.581Z,-1.08
2023-02-08T01:41:37.540Z,-1.09
2023-02-08T01:44:11.908Z,-1.14
2023-02-08T01:46:42.382Z,-1.17
2023-02-08T01:49:22.700Z,-1.16
2023-02-08T01:51:55.976Z,-1.15
2023-02-08T01:54:30.547Z,-1.10
2023-02-08T01:56:59.094Z,-1.07
2023-02-08T01:59:33.879Z,-1.03
2023-02-08T02:02:04.818Z,-1.04
2023-02-08T02:04:32.857Z,-1.11
2023-02-08T02:07:03.928Z,-1.12
2023-02-08T02:09:40.191Z,-1.14
2023-02-08T02:12:09.650Z,-1.16
2023-02-08T02:14:38.903Z,-1.16
2023-02-08T02:17:07.405Z,-1.13
2023-02-08T02:20:03.564Z,-1.13
2023-02-08T02:22:31.372Z,-1.15
2023-02-08T02:25:30.500Z,-1.18
2023-02-08T02:28:53.055Z,-1.11
2023-02-08T02:31:57.406Z,-1.14
2023-02-08T02:35:01.787Z,-1.11
2023-02-08T02:37:44.799Z,-1.06
2023-02-08T02:40:32.084Z,-1.09
2023-02-08T02:43:30.006Z,-1.17
2023-02-08T02:46:19.827Z,-1.22
2023-02-08T02:48:50.573Z,-1.21
2023-02-08T02:51:27.415Z,-1.22
2023-02-08T02:54:17.277Z,-1.23
2023-02-08T02:56:49.161Z,-1.26
2023-02-08T02:59:18.282Z,-1.30
2023-02-08T03:01:47.168Z,-1.31
2023-02-08T03:04:18.168Z,-1.28
2023-02-08T03:06:49.010Z,-1.25
2023-02-08T03:09:37.520Z,-1.19
2023-02-08T03:12:33.640Z,-1.17
2023-02-08T03:15:19.684Z,-1.27
2023-02-08T03:18:19.449Z,-1.34
2023-02-08T03:21:17.850Z,-1.31
2023-02-08T03:23:51.773Z,-1.31
2023-02-08T03:26:32.063Z,-1.28
2023-02-08T03:29:30.895Z,-1.24
2023-02-08T03:32:22.171Z,-1.17
2023-02-08T03:35:18.133Z,-1.11
2023-02-08T03:37:55.356Z,-1.12
2023-02-08T03:40:27.090Z,-1.12
2023-02-08T03:43:00.245Z,-1.12
2023-02-08T03:45:45.682Z,-1.16
2023-02-08T03:48:14.507Z,-1.13
2023-02-08T03:50:47.283Z,-1.14
2023-02-08T03:53:22.516Z,-1.10
2023-02-08T03:55:58.196Z,-1.12
2023-02-08T03:58:34.690Z,-1.12
2023-02-08T04:01:20.161Z,-1.11
2023-02-08T04:03:53.178Z,-1.08
2023-02-08T04:06:22.521Z,-1.07
2023-02-08T04:08:50.654Z,-1.02
2023-02-08T04:11:18.643Z,-0.99
2023-02-08T04:13:46.530Z,-0.99
2023-02-08T04:16:14.636Z,-1.00
2023-02-08T04:18:43.010Z,-1.05
2023-02-08T04:21:10.970Z,-1.06
2023-02-08T04:23:38.989Z,-1.07
2023-02-08T04:26:08.885Z,-1.08
2023-02-08T04:28:36.850Z,-1.10
2023-02-08T04:31:05.055Z,-1.09
2023-02-08T04:33:32.970Z,-1.12
2023-02-08T04:36:00.835Z,-1.09
2023-02-08T04:38:28.749Z,-1.05
2023-02-08T04:40:56.716Z,-1.01
2023-02-08T04:43:24.933Z,-1.02
2023-02-08T04:45:52.936Z,-1.06
2023-02-08T04:48:21.272Z,-1.09
2023-02-08T04:50:49.124Z,-1.14
2023-02-08T04:53:17.198Z,-1.19
2023-02-08T04:55:45.232Z,-1.20
2023-02-08T04:58:13.165Z,-1.21
2023-02-08T05:00:41.508Z,-1.26
2023-02-08T05:03:10.359Z,-1.30
2023-02-08T05:05:38.406Z,-1.30
2023-02-08T05:08:06.618Z,-1.31
2023-02-08T05:10:34.761Z,-1.31
2023-02-08T05:13:02.924Z,-1.28
2023-02-08T05:15:31.001Z,-1.24
2023-02-08T05:17:58.833Z,-1.24
2023-02-08T05:20:26.850Z,-1.25
2023-02-08T05:22:54.844Z,-1.26
2023-02-08T05:25:23.114Z,-1.29
2023-02-08T05:27:51.395Z,-1.30
2023-02-08T05:30:19.660Z,-1.34
2023-02-08T05:32:47.666Z,-1.32
2023-02-08T05:35:15.730Z,-1.31
2023-02-08T05:37:43.740Z,-1.27
2023-02-08T05:40:13.307Z,-1.26
2023-02-08T05:42:42.471Z,-1.22
2023-02-08T05:45:10.335Z,-1.19
2023-02-08T05:47:38.226Z,-1.12
2023-02-08T05:50:06.834Z,-1.12
2023-02-08T05:52:34.755Z,-1.10
2023-02-08T05:55:02.751Z,-1.11
2023-02-08T05:57:33.606Z,-1.12
2023-02-08T06:00:05.510Z,-1.16
2023-02-08T06:02:34.337Z,-1.20
2023-02-08T06:05:02.195Z,-1.24
2023-02-08T06:07:30.250Z,-1.28
2023-02-08T06:09:58.101Z,-1.31
2023-02-08T06:12:26.122Z,-1.26
2023-02-08T06:14:53.886Z,-1.23
2023-02-08T06:17:21.746Z,-1.19
2023-02-08T06:19:49.683Z,-1.17
2023-02-08T06:22:17.687Z,-1.17
2023-02-08T06:24:45.622Z,-1.23
2023-02-08T06:27:13.631Z,-1.23
2023-02-08T06:29:41.533Z,-1.26
2023-02-08T06:32:09.653Z,-1.29
2023-02-08T06:34:37.573Z,-1.24
2023-02-08T06:37:05.734Z,-1.26
2023-02-08T06:39:34.294Z,-1.23
2023-02-08T06:42:02.256Z,-1.18
2023-02-08T06:44:30.287Z,-1.15
2023-02-08T06:46:58.157Z,-1.13
2023-02-08T06:49:25.966Z,-1.12
2023-02-08T06:51:54.027Z,-1.10
2023-02-08T06:54:21.906Z,-1.11
2023-02-08T06:56:49.901Z,-1.08
2023-02-08T06:59:17.808Z,-1.04
2023-02-08T07:01:45.757Z,-1.04
2023-02-08T07:04:13.685Z,-1.01
2023-02-08T07:06:41.541Z,-0.98
2023-02-08T07:09:09.394Z,-0.94
2023-02-08T07:11:37.351Z,-0.93
2023-02-08T07:14:05.457Z,-0.91
2023-02-08T07:16:33.386Z,-0.91
2023-02-08T07:19:01.389Z,-0.91
2023-02-08T07:21:29.350Z,-0.90
2023-02-08T07:23:57.283Z,-0.86
2023-02-08T07:26:25.091Z,-0.80
2023-02-08T07:28:52.865Z,-0.76
2023-02-08T07:31:20.832Z,-0.71
2023-02-08T07:33:49.502Z,-0.68
2023-02-08T07:36:17.322Z,-0.66
2023-02-08T07:38:45.235Z,-0.60
2023-02-08T07:41:14.860Z,-0.56
2023-02-08T07:43:43.256Z,-0.49
2023-02-08T07:46:20.892Z,-0.39
2023-02-08T07:48:52.868Z,-0.25
2023-02-08T07:51:20.814Z,-0.13
2023-02-08T07:53:48.873Z,0.03
2023-02-08T07:56:17.513Z,0.01
2023-02-08T07:58:46.661Z,-0.05
2023-02-08T08:01:22.260Z,-0.04
2023-02-08T08:03:52.423Z,-0.03
2023-02-08T08:06:22.013Z,-0.02
2023-02-08T08:08:50.770Z,-0.02
2023-02-08T08:11:20.843Z,0.01
2023-02-08T08:13:48.961Z,-0.01
2023-02-08T08:16:17.424Z,-0.04
2023-02-08T08:18:45.955Z,-0.05
2023-02-08T08:21:15.497Z,-0.07
2023-02-08T08:23:43.590Z,-0.05
2023-02-08T08:26:18.751Z,0.00
2023-02-08T08:28:47.455Z,0.08
2023-02-08T08:31:21.539Z,0.09
2023-02-08T08:33:50.611Z,0.08
2023-02-08T08:36:18.643Z,0.07
2023-02-08T08:38:46.712Z,0.08
2023-02-08T08:41:22.454Z,0.08
2023-02-08T08:43:50.574Z,0.08
2023-02-08T08:46:18.564Z,0.08
2023-02-08T08:48:46.899Z,0.06
2023-02-08T08:51:15.234Z,0.08
2023-02-08T08:53:43.332Z,0.11
2023-02-08T08:56:11.843Z,0.15
2023-02-08T08:58:40.094Z,0.18
2023-02-08T09:01:07.981Z,0.18
2023-02-08T09:03:36.203Z,0.23
2023-02-08T09:06:04.086Z,0.28
2023-02-08T09:08:32.077Z,0.35
2023-02-08T09:11:11.742Z,0.38
2023-02-08T09:13:40.172Z,0.41
2023-02-08T09:16:15.002Z,0.46
2023-02-08T09:18:44.215Z,0.47
2023-02-08T09:21:18.772Z,0.54
2023-02-08T09:23:50.011Z,0.64
2023-02-08T09:26:19.885Z,0.75
2023-02-08T09:28:48.276Z,0.86
2023-02-08T09:31:21.164Z,0.93
2023-02-08T09:33:54.342Z,0.95
2023-02-08T09:36:24.424Z,0.97
2023-02-08T09:39:00.255Z,1.02
2023-02-08T09:41:37.021Z,1.06
2023-02-08T09:44:26.409Z,1.10
2023-02-08T09:47:08.733Z,1.08
2023-02-08T09:49:43.586Z,1.19
2023-02-08T09:52:16.517Z,1.30
2023-02-08T09:54:54.885Z,1.33
2023-02-08T09:57:28.853Z,1.34
2023-02-08T10:00:01.839Z,1.38
2023-02-08T10:02:32.797Z,1.45
2023-02-08T10:05:29.918Z,1.50
2023-02-08T10:08:00.581Z,1.58
2023-02-08T10:10:55.519Z,1.67
2023-02-08T10:13:42.545Z,1.73
2023-02-08T10:16:32.637Z,1.78
2023-02-08T10:19:18.695Z,1.84
2023-02-08T10:22:07.578Z,1.91
2023-02-08T10:24:38.480Z,2.00
2023-02-08T10:27:08.974Z,2.06
2023-02-08T10:30:04.829Z,2.15
2023-02-08T10:32:51.467Z,2.25
2023-02-08T10:35:28.987Z,2.28
2023-02-08T10:37:57.054Z,2.24
2023-02-08T10:40:35.955Z,2.19
2023-02-08T10:43:26.942Z,2.25
2023-02-08T10:46:20.463Z,2.30
2023-02-08T10:49:16.654Z,2.38
2023-02-08T10:51:46.376Z,2.43
2023-02-08T10:54:16.256Z,2.44
2023-02-08T10:56:57.694Z,2.38
2023-02-08T10:59:37.536Z,2.31
2023-02-08T11:02:29.063Z,2.35
2023-02-08T11:05:05.573Z,2.45
2023-02-08T11:07:36.471Z,2.55
2023-02-08T11:10:25.700Z,2.63
2023-02-08T11:12:56.764Z,2.66
2023-02-08T11:15:37.429Z,2.71
2023-02-08T11:18:07.184Z,2.74
2023-02-08T11:20:40.462Z,2.77
2023-02-08T11:23:30.156Z,2.85
2023-02-08T11:26:30.959Z,2.92
2023-02-08T11:29:17.976Z,2.96
2023-02-08T11:31:55.440Z,3.03
2023-02-08T11:34:26.327Z,3.11
2023-02-08T11:36:55.985Z,3.14
2023-02-08T11:39:40.514Z,3.15
2023-02-08T11:42:26.317Z,3.16
2023-02-08T11:44:57.170Z,3.17
2023-02-08T11:47:30.720Z,3.23
2023-02-08T11:50:06.169Z,3.24
2023-02-08T11:52:38.290Z,3.26
2023-02-08T11:55:18.674Z,3.26
2023-02-08T11:58:01.113Z,3.31
2023-02-08T12:00:35.341Z,3.32
2023-02-08T12:03:23.853Z,3.35
2023-02-08T12:06:13.590Z,3.41
2023-02-08T12:08:54.559Z,3.41
2023-02-08T12:11:43.948Z,3.39
2023-02-08T12:14:21.319Z,3.39
2023-02-08T12:17:10.255Z,3.38
2023-02-08T12:20:10.301Z,3.30
2023-02-08T12:22:44.833Z,3.26
2023-02-08T12:25:28.178Z,3.26
2023-02-08T12:28:03.684Z,3.24
2023-02-08T12:30:43.993Z,3.21
2023-02-08T12:33:58.701Z,3.21
2023-02-08T12:36:41.545Z,3.14
2023-02-08T12:39:53.843Z,3.12
2023-02-08T12:42:26.198Z,3.05
2023-02-08T12:45:33.041Z,2.98
2023-02-08T12:48:19.652Z,2.92
2023-02-08T12:50:59.266Z,2.88
2023-02-08T12:53:49.082Z,2.85
2023-02-08T12:56:23.337Z,2.82
2023-02-08T12:59:08.254Z,2.82
2023-02-08T13:01:47.463Z,2.74
2023-02-08T13:04:22.894Z,2.70
2023-02-08T13:06:59.360Z,2.65
2023-02-08T13:09:35.517Z,2.65
2023-02-08T13:12:19.548Z,2.64
2023-02-08T13:14:52.685Z,2.57
2023-02-08T13:17:51.711Z,2.50
2023-02-08T13:20:30.972Z,2.49
2023-02-08T13:23:11.337Z,2.46
2023-02-08T13:25:43.157Z,2.40
2023-02-08T13:28:19.780Z,2.29
2023-02-08T13:31:07.216Z,2.17
2023-02-08T13:33:59.292Z,2.11
2023-02-08T13:36:40.506Z,2.11
2023-02-08T13:39:35.177Z,2.15
2023-02-08T13:42:06.264Z,2.28
2023-02-08T13:44:38.547Z,2.43
2023-02-08T13:47:08.052Z,2.47
2023-02-08T13:49:51.223Z,2.49
2023-02-08T13:52:46.957Z,2.54
2023-02-08T13:55:32.152Z,2.56
2023-02-08T13:58:04.325Z,2.57
2023-02-08T14:00:35.565Z,2.53
2023-02-08T14:03:15.519Z,2.50
2023-02-08T14:05:53.375Z,2.52
2023-02-08T14:08:23.629Z,2.62
2023-02-08T14:11:30.463Z,2.61
2023-02-08T14:13:58.338Z,2.58
2023-02-08T14:16:40.749Z,2.57
2023-02-08T14:19:20.705Z,2.54
2023-02-08T14:22:07.014Z,2.52
2023-02-08T14:24:59.809Z,2.48
2023-02-08T14:27:39.816Z,2.46
2023-02-08T14:30:17.138Z,2.42
2023-02-08T14:33:05.190Z,2.38
2023-02-08T14:35:37.648Z,2.37
2023-02-08T14:38:23.971Z,2.35
2023-02-08T14:41:02.080Z,2.32
2023-02-08T14:43:42.589Z,2.33
2023-02-08T14:46:43.322Z,2.28
2023-02-08T14:49:17.256Z,2.24
2023-02-08T14:52:02.957Z,2.23
2023-02-08T14:54:37.613Z,2.19
2023-02-08T14:57:28.098Z,2.12
2023-02-08T15:00:00.619Z,2.03
2023-02-08T15:02:32.674Z,1.98
2023-02-08T15:05:09.414Z,1.93
2023-02-08T15:07:47.165Z,1.83
2023-02-08T15:10:17.201Z,1.77
2023-02-08T15:12:51.706Z,1.71
2023-02-08T15:15:28.883Z,1.63
2023-02-08T15:17:57.975Z,1.52
2023-02-08T15:20:32.117Z,1.42
2023-02-08T15:23:19.982Z,1.33
2023-02-08T15:26:06.653Z,1.23
2023-02-08T15:28:36.728Z,1.15
2023-02-08T15:31:09.631Z,1.11
2023-02-08T15:33:39.573Z,1.08
2023-02-08T15:36:22.701Z,1.04
2023-02-08T15:38:51.084Z,1.02
2023-02-08T15:41:31.692Z,0.97
2023-02-08T15:44:30.145Z,0.89
2023-02-08T15:47:04.489Z,0.74
2023-02-08T15:49:37.548Z,0.63
2023-02-08T15:52:06.381Z,0.50
2023-02-08T15:54:34.936Z,0.38
2023-02-08T15:57:08.010Z,0.27
2023-02-08T15:59:39.229Z,0.18
2023-02-08T16:02:26.171Z,0.10
2023-02-08T16:04:55.633Z,0.05
2023-02-08T16:07:29.440Z,-0.01
2023-02-08T16:09:58.141Z,-0.11
2023-02-08T16:12:28.923Z,-0.18
2023-02-08T16:14:57.055Z,-0.21
2023-02-08T16:17:37.758Z,-0.29
2023-02-08T16:20:22.818Z,-0.36
2023-02-08T16:22:59.924Z,-0.44
2023-02-08T16:25:37.885Z,-0.57
2023-02-08T16:28:06.154Z,-0.67
2023-02-08T16:30:34.580Z,-0.73
2023-02-08T16:33:08.056Z,-0.78
2023-02-08T16:35:38.814Z,-0.81
2023-02-08T16:38:10.244Z,-0.80
2023-02-08T16:40:38.151Z,-0.77
2023-02-08T16:43:20.222Z,-0.74
2023-02-08T16:46:16.552Z,-0.69
2023-02-08T16:48:48.899Z,-0.61
2023-02-08T16:51:24.704Z,-0.54
2023-02-08T16:53:56.738Z,-0.47
2023-02-08T16:56:25.068Z,-0.37
2023-02-08T16:58:53.342Z,-0.27
2023-02-08T17:01:26.414Z,-0.18
2023-02-08T17:03:54.845Z,-0.13
2023-02-08T17:06:37.557Z,-0.19
2023-02-08T17:09:09.039Z,-0.23
2023-02-08T17:11:37.868Z,-0.28
2023-02-08T17:14:10.151Z,-0.31
2023-02-08T17:16:40.074Z,-0.33
2023-02-08T17:19:16.572Z,-0.37
2023-02-08T17:21:44.989Z,-0.40
2023-02-08T17:24:12.750Z,-0.42
2023-02-08T17:26:44.023Z,-0.46
2023-02-08T17:29:13.036Z,-0.50
2023-02-08T17:31:41.391Z,-0.56
2023-02-08T17:34:09.243Z,-0.60
2023-02-08T17:36:37.310Z,-0.68
2023-02-08T17:39:06.093Z,-0.78
2023-02-08T17:41:35.543Z,-0.88
2023-02-08T17:44:04.255Z,-0.96
2023-02-08T17:46:32.978Z,-1.09
2023-02-08T17:49:01.933Z,-1.21
2023-02-08T17:51:31.070Z,-1.25
2023-02-08T17:53:59.340Z,-1.27
2023-02-08T17:56:28.750Z,-1.29
2023-02-08T17:58:59.287Z,-1.32
2023-02-08T18:01:27.327Z,-1.35
2023-02-08T18:03:55.785Z,-1.37
2023-02-08T18:06:25.102Z,-1.45
2023-02-08T18:08:54.875Z,-1.52
2023-02-08T18:11:24.240Z,-1.60
2023-02-08T18:13:53.834Z,-1.67
2023-02-08T18:16:27.349Z,-1.77
2023-02-08T18:19:02.047Z,-1.84
2023-02-08T18:21:33.124Z,-1.91
2023-02-08T18:24:05.595Z,-1.93
2023-02-08T18:26:34.637Z,-1.99
2023-02-08T18:29:03.514Z,-1.99
2023-02-08T18:31:32.201Z,-2.02
2023-02-08T18:34:00.245Z,-2.07
2023-02-08T18:36:28.136Z,-2.11
2023-02-08T18:38:56.997Z,-2.17
2023-02-08T18:41:28.057Z,-2.22
2023-02-08T18:43:58.308Z,-2.29
2023-02-08T18:46:28.490Z,-2.34
2023-02-08T18:48:56.979Z,-2.39
2023-02-08T18:51:26.478Z,-2.43
2023-02-08T18:53:55.102Z,-2.45
2023-02-08T18:56:25.295Z,-2.39
2023-02-08T18:58:55.636Z,-2.39
2023-02-08T19:01:24.993Z,-2.41
2023-02-08T19:03:54.245Z,-2.43
2023-02-08T19:06:25.523Z,-2.44
2023-02-08T19:08:56.033Z,-2.53
2023-02-08T19:11:26.924Z,-2.62
2023-02-08T19:14:01.865Z,-2.70
2023-02-08T19:16:31.493Z,-2.74
2023-02-08T19:19:01.237Z,-2.73
2023-02-08T19:21:30.774Z,-2.73
2023-02-08T19:24:00.709Z,-2.70
2023-02-08T19:26:39.889Z,-2.71
2023-02-08T19:29:14.234Z,-2.68
2023-02-08T19:31:42.735Z,-2.66
2023-02-08T19:34:12.357Z,-2.65
2023-02-08T19:36:49.690Z,-2.63
2023-02-08T19:39:22.637Z,-2.62
2023-02-08T19:41:52.924Z,-2.61
2023-02-08T19:44:22.749Z,-2.65
2023-02-08T19:46:55.293Z,-2.64
2023-02-08T19:49:26.031Z,-2.65
2023-02-08T19:51:54.903Z,-2.72
2023-02-08T19:54:23.212Z,-2.75
2023-02-08T19:56:54.736Z,-2.75
2023-02-08T19:59:29.320Z,-2.76
2023-02-08T20:01:58.266Z,-2.77
2023-02-08T20:04:26.498Z,-2.78
2023-02-08T20:06:54.710Z,-2.75
2023-02-08T20:09:22.607Z,-2.75
2023-02-08T20:11:59.726Z,-2.73
2023-02-08T20:14:31.126Z,-2.73
2023-02-08T20:17:00.202Z,-2.76
2023-02-08T20:19:29.378Z,-2.81
2023-02-08T20:21:57.374Z,-2.84
2023-02-08T20:24:25.372Z,-2.87
2023-02-08T20:26:53.428Z,-2.93
2023-02-08T20:29:21.439Z,-2.95
2023-02-08T20:31:55.818Z,-2.98
2023-02-08T20:34:24.431Z,-2.98
2023-02-08T20:37:06.172Z,-3.02
2023-02-08T20:39:36.897Z,-3.02
2023-02-08T20:42:05.437Z,-3.04
2023-02-08T20:44:33.571Z,-3.06
2023-02-08T20:47:01.827Z,-3.07
2023-02-08T20:49:32.217Z,-3.12
2023-02-08T20:52:00.735Z,-3.17
2023-02-08T20:54:28.898Z,-3.22
2023-02-08T20:56:57.319Z,-3.32
2023-02-08T20:59:25.647Z,-3.39
2023-02-08T21:01:53.857Z,-3.41
2023-02-08T21:04:26.364Z,-3.47
2023-02-08T21:06:54.458Z,-3.52
2023-02-08T21:09:22.503Z,-3.56
2023-02-08T21:11:51.766Z,-3.60
2023-02-08T21:14:23.252Z,-3.61
2023-02-08T21:16:55.924Z,-3.59
2023-02-08T21:19:25.876Z,-3.60
2023-02-08T21:21:58.561Z,-3.61
2023-02-08T21:24:27.532Z,-3.62
2023-02-08T21:26:56.800Z,-3.68
2023-02-08T21:29:25.496Z,-3.74
2023-02-08T21:31:54.649Z,-3.80
2023-02-08T21:34:23.163Z,-3.84
2023-02-08T21:36:51.184Z,-3.85
2023-02-08T21:39:19.338Z,-3.86
2023-02-08T21:41:48.417Z,-3.87
2023-02-08T21:44:16.572Z,-3.93
2023-02-08T21:46:44.506Z,-3.98
2023-02-08T21:49:31.668Z,-4.01
2023-02-08T21:52:18.389Z,-4.02
2023-02-08T21:54:53.139Z,-4.01
2023-02-08T21:57:24.447Z,-4.04
2023-02-08T21:59:56.609Z,-4.11
2023-02-08T22:02:28.691Z,-4.15
2023-02-08T22:04:59.196Z,-4.22
2023-02-08T22:07:28.980Z,-4.24
2023-02-08T22:09:58.025Z,-4.26
2023-02-08T22:12:25.965Z,-4.26
2023-02-08T22:14:53.956Z,-4.27
2023-02-08T22:17:21.825Z,-4.29
2023-02-08T22:19:49.750Z,-4.29
2023-02-08T22:22:17.651Z,-4.30
2023-02-08T22:24:45.461Z,-4.31
2023-02-08T22:27:13.402Z,-4.32
2023-02-08T22:29:41.420Z,-4.32
2023-02-08T22:32:10.141Z,-4.41
2023-02-08T22:34:38.538Z,-4.44
2023-02-08T22:37:06.368Z,-4.46
2023-02-08T22:39:35.871Z,-4.51
2023-02-08T22:42:08.603Z,-4.51
2023-02-08T22:44:36.674Z,-4.51
2023-02-08T22:47:08.709Z,-4.51
2023-02-08T22:49:37.940Z,-4.53
2023-02-08T22:52:08.806Z,-4.56
2023-02-08T22:54:36.736Z,-4.55
2023-02-08T22:57:06.203Z,-4.56
2023-02-08T22:59:34.343Z,-4.58
2023-02-08T23:02:02.315Z,-4.61
2023-02-08T23:04:31.180Z,-4.68
2023-02-08T23:07:00.035Z,-4.66
2023-02-08T23:09:27.912Z,-4.69
2023-02-08T23:11:56.247Z,-4.70
2023-02-08T23:14:24.236Z,-4.74
2023-02-08T23:16:52.196Z,-4.76
2023-02-08T23:19:20.034Z,-4.76
2023-02-08T23:21:48.025Z,-4.78
2023-02-08T23:24:15.887Z,-4.77
2023-02-08T23:26:43.795Z,-4.85
2023-02-08T23:29:11.815Z,-4.89
2023-02-08T23:31:41.066Z,-4.96
2023-02-08T23:34:11.518Z,-5.04
2023-02-08T23:36:39.556Z,-5.09
2023-02-08T23:39:08.153Z,-5.10
2023-02-08T23:41:36.028Z,-5.12
2023-02-08T23:44:04.166Z,-5.14
2023-02-08T23:46:32.728Z,-5.18
2023-02-08T23:49:00.901Z,-5.22
2023-02-08T23:51:28.818Z,-5.27
2023-02-08T23:53:56.853Z,-5.32
2023-02-08T23:56:32.000Z,-5.40
2023-02-08T23:59:00.605Z,-5.45
